Impacts TAF Board INFO
FOR SITUATIONAL AWARENESS. NOT TO BE USED FOR FLIGHT PLANNING PURPOSES.
IDs:

KORD - Chicago/O'Hare Intl, IL, US

Issued at 0301 UTC 18 Aug 2017
Updated at 0315 UTC 18 Aug 2017
Potential Impact None Slight Moderate High
Time0251Z 18/04Z 18/05Z 18/06Z 18/07Z 18/08Z 18/09Z 18/10Z 18/11Z 18/12Z 18/13Z 18/14Z 18/15Z 18/16Z>>
Type OBS PRVL PRVL PRVL PRVL PRVL PRVL PRVL PRVL PRVL PRVL PRVL PRVL PRVL
VIS 10 >6 >6 >6 >6 >6 >6 >6 >6 >6 >6 >6 >6 >6
CIG 50 50 50 -- -- -- -- -- -- -- -- -- -- --
Cover OVC BKN BKN SCT SCT SCT SCT SCT SCT SCT SCT SCT SCT SCT
FltCat VFR VFR VFR VFR VFR VFR VFR VFR VFR VFR VFR VFR VFR VFR
WX -- -- -- -- -- -- -- -- -- -- -- -- -- --
WDir 270 260 260 280 280 280 280 280 280 280 280 280 290 290
WSpd 12 12 12 12 12 12 12 12 12 12 12 12 12 12
WGst -- 18 18 -- -- -- -- -- -- -- -- -- 19 19

Raw TAF
KORD 180301Z 1803/1906 26012G18KT P6SM FEW025 BKN050
  FM180600 28012KT P6SM SCT050
  FM181500 29012G19KT P6SM SCT040
  FM190100 31008KT P6SM BKN040


Raw METAR
KORD 180251Z 27012KT 10SM SCT033 BKN050 OVC080 24/17 A2978 RMK AO2 PK WND 29032/0222 SLP078 T02390167 52017
KORD 180151Z 26014G25KT 10SM FEW065 BKN090 BKN110 25/17 A2976 RMK AO2 SLP073 T02500172
KORD 180051Z 26017KT 10SM FEW045 BKN065 BKN080 26/18 A2974 RMK AO2 SLP066 T02560178

METAR Board
Radar Display
Forecast Discussion

FOR SITUATIONAL AWARENESS. NOT TO BE USED FOR FLIGHT PLANNING PURPOSES.